Time;durP1;ratioP1;P1;durP2;ratioP2;P2;SDS_P1;SDS_P2;PMS_P1;PMS_P2;Temp;Humidity;BMP_temperature;BMP_pressure;BME280_temperature;BME280_humidity;BME280_pressure;Samples;Min_cycle;Max_cycle;Signal;HPM_P1;HPM_P2
2023/10/09 00:01:50;;;;;;;12.13;3.30;;;13.50;1.00;;;;;;5021314;28;20422;-71
2023/10/09 00:04:17;;;;;;;10.70;4.10;;;13.50;1.00;;;;;;5004409;28;20451;-71
2023/10/09 00:06:43;;;;;;;18.37;4.07;;;13.50;1.00;;;;;;5014038;28;20419;-71
2023/10/09 00:11:56;;;;;;;19.43;4.40;;;13.50;1.00;;;;;;5008658;28;20466;-78
2023/10/09 00:14:30;;;;;;;11.43;3.33;;;13.60;1.00;;;;;;5018701;28;20447;-78
2023/10/09 00:20:42;;;;;;;17.43;3.97;;;13.60;1.00;;;;;;5007460;28;20438;-78
2023/10/09 00:23:25;;;;;;;6.50;3.03;;;13.60;1.00;;;;;;5024330;28;20910;-78
2023/10/09 00:26:43;;;;;;;12.83;3.00;;;13.60;1.00;;;;;;5017984;28;20506;-78
2023/10/09 00:29:34;;;;;;;6.90;2.90;;;13.60;1.00;;;;;;5000118;28;20399;-78
2023/10/09 00:32:05;;;;;;;5.73;2.93;;;13.50;1.00;;;;;;5015701;28;20422;-78
2023/10/09 00:38:00;;;;;;;10.20;2.87;;;13.50;1.00;;;;;;5024702;28;20392;-78
2023/10/09 00:41:04;;;;;;;9.13;3.60;;;13.50;1.00;;;;;;5026322;28;20489;-78
2023/10/09 00:43:30;;;;;;;17.60;3.73;;;13.50;1.00;;;;;;5015019;28;21104;-78
2023/10/09 00:46:04;;;;;;;6.97;3.27;;;13.50;1.00;;;;;;5012895;28;20502;-78
2023/10/09 00:48:47;;;;;;;14.13;3.03;;;13.40;1.00;;;;;;5028922;28;20417;-78
2023/10/09 00:51:41;;;;;;;4.37;2.73;;;13.40;1.00;;;;;;5014740;28;20451;-78
2023/10/09 00:54:14;;;;;;;4.93;2.63;;;13.50;1.00;;;;;;5015220;28;20471;-78
2023/10/09 01:06:33;;;;;;;6.07;3.50;;;13.40;1.00;;;;;;5024382;28;20419;-78
2023/10/09 01:09:14;;;;;;;5.20;2.77;;;13.30;1.00;;;;;;5016163;28;20996;-78
2023/10/09 01:12:28;;;;;;;12.03;3.20;;;13.30;1.00;;;;;;5017234;28;20445;-78
2023/10/09 01:14:36;;;;;;;17.17;4.53;;;13.40;1.00;;;;;;4993732;28;20464;-71
2023/10/09 01:17:06;;;;;;;29.87;5.90;;;13.40;1.00;;;;;;5010809;28;20428;-71
2023/10/09 01:19:33;;;;;;;26.37;5.47;;;13.40;1.00;;;;;;5013091;28;20428;-71
2023/10/09 01:22:16;;;;;;;20.03;5.57;;;13.40;1.00;;;;;;5019356;28;20430;-71
2023/10/09 01:24:43;;;;;;;10.53;3.67;;;13.40;1.00;;;;;;5017205;28;20808;-71
2023/10/09 01:27:17;;;;;;;13.57;3.70;;;13.50;1.00;;;;;;5013471;28;20431;-77
2023/10/09 01:30:13;;;;;;;10.47;3.50;;;13.40;1.00;;;;;;5009176;28;20435;-77
2023/10/09 01:32:40;;;;;;;9.47;3.07;;;13.40;1.00;;;;;;5022790;28;20444;-78
2023/10/09 01:35:21;;;;;;;10.10;3.17;;;13.40;1.00;;;;;;5019686;28;20487;-78
2023/10/09 01:37:51;;;;;;;8.73;2.97;;;13.50;1.00;;;;;;5012881;28;20435;-78
2023/10/09 01:40:37;;;;;;;6.53;3.07;;;13.40;1.00;;;;;;5002534;28;20421;-78
2023/10/09 01:43:03;;;;;;;10.77;4.00;;;13.40;1.00;;;;;;5021622;28;20410;-71
2023/10/09 01:45:41;;;;;;;12.80;4.40;;;13.50;1.00;;;;;;5013477;28;20802;-71
2023/10/09 01:48:08;;;;;;;31.87;6.33;;;13.50;1.00;;;;;;5006548;28;20420;-71
2023/10/09 01:50:41;;;;;;;20.30;4.97;;;13.40;1.00;;;;;;5015305;28;20441;-71
2023/10/09 01:53:08;;;;;;;27.70;6.33;;;13.40;1.00;;;;;;5011109;28;20452;-71
2023/10/09 01:55:37;;;;;;;22.53;5.47;;;13.40;1.00;;;;;;5010963;28;20394;-71
2023/10/09 02:01:09;;;;;;;9.90;3.10;;;13.40;1.00;;;;;;5008107;28;20511;-78
2023/10/09 02:03:44;;;;;;;7.77;2.97;;;13.40;1.00;;;;;;4996745;28;20417;-78
2023/10/09 02:06:26;;;;;;;11.03;3.20;;;13.40;1.00;;;;;;5023262;28;20439;-78
2023/10/09 02:09:22;;;;;;;4.80;2.60;;;13.30;1.00;;;;;;5002400;28;20942;-78
2023/10/09 02:11:47;;;;;;;12.33;3.33;;;13.30;1.00;;;;;;5010656;28;20815;-78
2023/10/09 02:14:20;;;;;;;13.50;4.17;;;13.20;1.00;;;;;;4997138;28;20452;-78
2023/10/09 02:20:30;;;;;;;8.77;3.70;;;13.20;1.00;;;;;;4991288;28;20962;-78
2023/10/09 02:23:13;;;;;;;7.77;4.10;;;13.30;1.00;;;;;;4996105;28;20440;-78
2023/10/09 02:29:04;;;;;;;15.33;4.73;;;13.20;1.00;;;;;;4991565;28;20836;-70
2023/10/09 02:31:35;;;;;;;17.00;4.80;;;13.40;1.00;;;;;;4995030;28;20436;-71
2023/10/09 02:34:05;;;;;;;14.67;3.83;;;13.30;1.00;;;;;;4994089;28;20480;-71
2023/10/09 02:36:31;;;;;;;16.17;4.63;;;13.30;1.00;;;;;;4993377;28;20433;-70
2023/10/09 02:38:57;;;;;;;30.10;6.40;;;13.30;1.00;;;;;;4970103;28;20526;-71
2023/10/09 02:41:23;;;;;;;18.60;3.60;;;13.20;1.00;;;;;;5001674;28;20569;-71
2023/10/09 02:43:55;;;;;;;29.50;6.57;;;13.20;1.00;;;;;;5000276;28;20246;-71
2023/10/09 02:46:28;;;;;;;15.00;4.40;;;13.20;1.00;;;;;;4990737;28;20604;-71
2023/10/09 02:48:56;;;;;;;15.93;4.60;;;13.20;1.00;;;;;;4993185;28;20959;-71
2023/10/09 02:53:57;;;;;;;12.80;4.97;;;13.20;1.00;;;;;;5004256;28;20512;-71
2023/10/09 02:56:24;;;;;;;12.47;3.90;;;13.20;1.00;;;;;;5021064;28;20514;-70
2023/10/09 02:58:51;;;;;;;11.77;4.53;;;13.20;1.00;;;;;;5027987;28;20420;-71
2023/10/09 03:01:17;;;;;;;12.53;3.93;;;13.20;1.00;;;;;;5016368;28;20439;-71
2023/10/09 03:03:46;;;;;;;11.40;4.03;;;13.20;1.00;;;;;;5008630;28;20917;-71
2023/10/09 03:06:13;;;;;;;23.33;5.87;;;13.20;1.00;;;;;;5016559;28;20184;-71
2023/10/09 03:08:42;;;;;;;27.90;6.00;;;13.20;1.00;;;;;;5009303;28;20532;-71
2023/10/09 03:11:13;;;;;;;18.13;4.30;;;13.20;1.00;;;;;;5022985;28;20463;-71
2023/10/09 03:13:43;;;;;;;10.30;3.70;;;13.10;1.00;;;;;;5025201;28;20501;-70
2023/10/09 03:16:27;;;;;;;10.33;3.83;;;13.10;1.00;;;;;;5016331;28;20426;-70
2023/10/09 03:18:53;;;;;;;7.03;3.20;;;13.10;1.00;;;;;;5005394;28;20588;-71
2023/10/09 03:21:19;;;;;;;20.00;5.63;;;13.00;1.00;;;;;;5000104;28;20522;-70
2023/10/09 03:23:51;;;;;;;14.97;4.00;;;13.00;1.00;;;;;;5002928;28;20185;-70
2023/10/09 03:26:19;;;;;;;16.23;4.00;;;13.00;1.00;;;;;;5013374;28;20419;-71
2023/10/09 03:28:46;;;;;;;6.93;3.40;;;13.00;1.00;;;;;;4997733;28;20416;-78
2023/10/09 03:31:53;;;;;;;8.13;3.23;;;13.00;1.00;;;;;;5003340;28;20514;-77
2023/10/09 03:34:19;;;;;;;6.40;3.63;;;12.90;1.00;;;;;;4997513;28;20463;-78
2023/10/09 03:37:03;;;;;;;7.80;3.80;;;12.90;1.00;;;;;;5013701;28;20473;-79
2023/10/09 03:39:34;;;;;;;14.87;5.37;;;12.90;1.00;;;;;;5011098;28;20432;-81
2023/10/09 03:42:43;;;;;;;16.27;4.33;;;13.00;3.50;;;;;;5009484;28;20420;-81
2023/10/09 03:46:03;;;;;;;4.80;3.40;;;13.00;4.80;;;;;;5036848;28;20453;-80
2023/10/09 03:49:23;;;;;;;7.77;4.23;;;13.00;5.50;;;;;;5018854;28;20528;-79
2023/10/09 03:51:50;;;;;;;17.40;4.87;;;13.10;9.50;;;;;;5010096;28;20444;-79
2023/10/09 03:54:27;;;;;;;10.33;3.87;;;13.10;11.80;;;;;;5014100;28;20510;-79
2023/10/09 03:56:58;;;;;;;13.47;4.30;;;13.20;12.70;;;;;;5018864;28;20458;-79
2023/10/09 03:59:32;;;;;;;20.97;5.97;;;13.20;11.20;;;;;;5023723;28;20773;-80
2023/10/09 04:08:47;;;;;;;6.93;3.53;;;13.20;8.90;;;;;;5014876;28;20939;-79
2023/10/09 04:15:01;;;;;;;7.40;3.50;;;13.40;6.20;;;;;;5012846;28;20825;-81
2023/10/09 04:24:41;;;;;;;15.83;4.43;;;13.40;7.60;;;;;;5013717;28;20427;-79
2023/10/09 04:30:28;;;;;;;6.70;3.47;;;13.40;8.00;;;;;;5018645;28;21016;-80
2023/10/09 04:33:34;;;;;;;7.67;4.40;;;13.40;5.30;;;;;;5015098;28;20502;-79
2023/10/09 04:45:59;;;;;;;11.60;3.97;;;13.40;4.30;;;;;;5022732;28;20793;-80
2023/10/09 04:48:09;;;;;;;14.90;5.50;;;13.30;3.40;;;;;;5008947;28;20411;-79
2023/10/09 04:57:17;;;;;;;8.73;3.93;;;13.30;2.80;;;;;;5017307;28;20463;-79
2023/10/09 05:06:55;;;;;;;28.77;6.53;;;13.20;5.40;;;;;;4997785;28;20421;-79
2023/10/09 05:09:21;;;;;;;8.70;4.07;;;13.20;5.90;;;;;;5002833;28;20431;-79
2023/10/09 05:11:53;;;;;;;12.37;5.00;;;13.30;5.60;;;;;;5004794;28;20799;-79
2023/10/09 05:17:51;;;;;;;12.37;4.30;;;13.20;6.40;;;;;;5008537;28;20399;-79
2023/10/09 05:23:23;;;;;;;6.20;3.70;;;13.30;5.90;;;;;;5021483;28;20444;-81
2023/10/09 05:26:51;;;;;;;16.03;4.20;;;13.30;7.40;;;;;;5006858;28;20505;-80
2023/10/09 05:33:27;;;;;;;11.53;4.37;;;13.40;8.80;;;;;;5015706;28;20808;-82
2023/10/09 05:38:46;;;;;;;11.60;4.23;;;13.40;11.50;;;;;;5030854;28;20529;-75
2023/10/09 05:41:47;;;;;;;14.03;4.77;;;13.40;10.80;;;;;;5016293;28;20435;-75
2023/10/09 05:47:29;;;;;;;25.63;6.10;;;13.50;10.80;;;;;;4953645;28;20793;-76
2023/10/09 05:50:03;;;;;;;23.70;6.70;;;13.50;9.60;;;;;;4961689;28;20409;-75
2023/10/09 06:06:03;;;;;;;9.93;4.50;;;13.60;6.40;;;;;;4958637;28;20816;-75
2023/10/09 06:14:12;;;;;;;24.90;5.60;;;13.70;8.20;;;;;;4954108;28;20449;-75
2023/10/09 06:16:43;;;;;;;10.80;4.63;;;13.70;8.10;;;;;;4965691;28;20445;-75
2023/10/09 06:24:22;;;;;;;11.30;4.53;;;13.90;7.00;;;;;;4977034;28;20429;-75
2023/10/09 06:41:34;;;;;;;12.17;5.23;;;14.20;1.10;;;;;;5014334;28;20418;-75
2023/10/09 06:43:53;;;;;;;14.80;5.20;;;14.30;1.00;;;;;;5018789;28;20442;-75
2023/10/09 06:48:58;;;;;;;8.87;4.37;;;14.40;1.00;;;;;;5001265;28;20941;-76
2023/10/09 06:54:04;;;;;;;18.53;4.80;;;14.40;1.00;;;;;;5008334;28;20465;-75
2023/10/09 06:59:41;;;;;;;11.77;5.10;;;14.60;1.00;;;;;;5021983;28;20389;-75
2023/10/09 07:02:25;;;;;;;15.90;5.43;;;14.60;1.00;;;;;;5015556;28;20420;-72
2023/10/09 07:04:54;;;;;;;20.80;6.50;;;14.70;1.00;;;;;;5018343;28;20386;-72
2023/10/09 07:07:24;;;;;;;14.30;5.37;;;14.80;1.00;;;;;;5000460;28;20833;-71
2023/10/09 07:12:42;;;;;;;20.27;6.23;;;14.90;3.50;;;;;;5013946;28;20450;-71
2023/10/09 07:20:36;;;;;;;13.53;5.20;;;15.20;1.00;;;;;;5019942;28;20957;-75
2023/10/09 07:23:32;;;;;;;13.67;5.80;;;15.20;1.00;;;;;;5027920;28;20771;-75
2023/10/09 07:26:23;;;;;;;18.83;6.00;;;15.30;1.00;;;;;;5008750;28;20387;-74
2023/10/09 07:28:50;;;;;;;17.83;5.67;;;15.40;1.00;;;;;;5011005;28;20456;-75
2023/10/09 07:31:27;;;;;;;12.73;5.50;;;15.50;1.00;;;;;;5013384;28;20409;-74
2023/10/09 07:33:59;;;;;;;7.70;4.03;;;15.70;1.00;;;;;;5007389;28;20447;-75
2023/10/09 07:36:34;;;;;;;16.37;4.83;;;15.80;1.00;;;;;;5013153;28;20389;-75
2023/10/09 07:39:13;;;;;;;8.50;4.77;;;16.00;1.00;;;;;;5016805;28;20416;-74
2023/10/09 07:41:44;;;;;;;20.90;5.17;;;16.10;1.00;;;;;;5015761;28;20909;-74
2023/10/09 07:44:34;;;;;;;18.93;5.33;;;16.20;1.00;;;;;;5015391;28;20419;-75
2023/10/09 07:49:51;;;;;;;12.80;5.00;;;16.20;1.00;;;;;;5012877;28;20426;-74
2023/10/09 07:52:18;;;;;;;17.60;4.40;;;16.30;1.00;;;;;;5014734;28;20414;-75
2023/10/09 07:54:49;;;;;;;14.70;5.17;;;16.30;1.00;;;;;;5012833;28;20428;-75
2023/10/09 07:57:16;;;;;;;12.50;4.97;;;16.40;1.00;;;;;;5019324;28;20401;-74
2023/10/09 07:59:54;;;;;;;16.20;5.20;;;16.40;1.00;;;;;;5023281;28;20432;-74
2023/10/09 08:02:31;;;;;;;9.73;4.93;;;16.60;1.00;;;;;;5028011;28;20437;-72
2023/10/09 08:05:04;;;;;;;13.93;5.20;;;16.70;1.00;;;;;;5011914;28;20416;-72
2023/10/09 08:07:37;;;;;;;17.77;5.27;;;16.90;1.00;;;;;;5016485;28;20389;-72
2023/10/09 08:12:57;;;;;;;16.33;4.70;;;17.20;1.00;;;;;;5020452;28;20409;-72
2023/10/09 08:15:51;;;;;;;11.70;4.83;;;17.40;1.00;;;;;;5020124;28;20516;-72
2023/10/09 08:18:27;;;;;;;22.13;4.90;;;17.60;1.00;;;;;;5021009;28;20422;-71
2023/10/09 08:23:29;;;;;;;22.83;4.20;;;17.80;1.00;;;;;;5019617;28;20515;-72
2023/10/09 08:26:12;;;;;;;10.40;4.73;;;17.90;1.00;;;;;;5017731;28;20422;-72
2023/10/09 08:28:43;;;;;;;21.00;4.90;;;18.00;1.00;;;;;;5014569;28;20449;-72
2023/10/09 08:31:34;;;;;;;15.63;4.20;;;17.90;1.00;;;;;;5015410;28;20386;-72
2023/10/09 08:34:01;;;;;;;14.00;4.40;;;17.80;1.00;;;;;;5012022;28;20465;-74
2023/10/09 08:36:28;;;;;;;15.80;4.40;;;17.70;1.00;;;;;;5032896;28;20404;-75
2023/10/09 08:39:25;;;;;;;14.73;5.30;;;17.60;1.00;;;;;;5022908;28;20468;-74
2023/10/09 08:41:49;;;;;;;11.63;4.27;;;17.60;1.00;;;;;;5019889;28;20410;-73
2023/10/09 08:44:22;;;;;;;23.57;4.87;;;17.60;1.00;;;;;;5016138;28;20944;-73
2023/10/09 08:46:59;;;;;;;15.60;4.77;;;17.60;1.00;;;;;;5029718;28;20396;-81
2023/10/09 08:49:26;;;;;;;19.00;5.13;;;17.70;1.00;;;;;;5010392;28;20429;-82
2023/10/09 08:52:04;;;;;;;14.57;4.50;;;17.70;1.00;;;;;;5014566;28;20443;-82
2023/10/09 08:54:33;;;;;;;22.97;4.83;;;17.80;1.00;;;;;;5001264;28;20449;-82
2023/10/09 08:57:52;;;;;;;11.17;4.43;;;17.80;1.00;;;;;;5031534;28;20440;-82
2023/10/09 09:03:43;;;;;;;20.30;4.67;;;18.10;1.00;;;;;;5016891;28;20451;-82
2023/10/09 09:07:02;;;;;;;23.03;6.37;;;18.20;1.00;;;;;;5007384;28;20407;-82
2023/10/09 09:09:34;;;;;;;11.93;4.43;;;18.40;1.00;;;;;;5006685;28;20946;-82
2023/10/09 09:12:15;;;;;;;13.67;4.70;;;18.60;1.00;;;;;;5010862;28;20488;-82
2023/10/09 09:15:12;;;;;;;15.07;5.03;;;18.80;1.00;;;;;;5026882;28;20459;-82
2023/10/09 09:18:37;;;;;;;9.13;4.43;;;18.80;1.00;;;;;;5022666;28;20394;-82
2023/10/09 09:21:54;;;;;;;13.63;5.33;;;18.90;1.00;;;;;;5008556;28;20475;-82
2023/10/09 09:25:10;;;;;;;9.73;4.20;;;18.80;1.00;;;;;;4996389;28;20455;-82
2023/10/09 09:27:54;;;;;;;14.07;4.83;;;19.00;1.00;;;;;;4988795;28;20425;-82
2023/10/09 09:30:33;;;;;;;13.07;4.33;;;18.70;1.00;;;;;;5003600;28;20877;-81
2023/10/09 09:33:40;;;;;;;14.93;4.20;;;18.70;1.00;;;;;;5003335;28;20442;-81
2023/10/09 09:36:56;;;;;;;11.70;4.43;;;18.60;1.00;;;;;;4931998;29;20444;-81
2023/10/09 09:39:28;;;;;;;11.90;4.33;;;18.60;1.00;;;;;;4933965;29;20479;-80
2023/10/09 09:42:25;;;;;;;18.03;4.77;;;18.60;1.00;;;;;;4935227;29;20435;-80
2023/10/09 09:45:23;;;;;;;20.83;4.43;;;18.60;1.00;;;;;;4923884;29;20434;-82
2023/10/09 09:48:11;;;;;;;12.03;4.17;;;18.80;1.00;;;;;;4923483;29;20837;-81
2023/10/09 09:51:05;;;;;;;12.83;4.20;;;18.90;1.00;;;;;;4930652;29;20498;-81
2023/10/09 09:53:34;;;;;;;14.50;4.40;;;19.00;1.00;;;;;;4907026;29;20540;-68
2023/10/09 09:56:02;;;;;;;15.53;4.40;;;19.10;1.00;;;;;;4916926;29;20438;-69
2023/10/09 09:58:42;;;;;;;9.80;4.20;;;19.20;1.00;;;;;;4927980;29;20447;-72
2023/10/09 10:01:16;;;;;;;17.90;5.03;;;19.30;1.00;;;;;;4926539;29;20435;-70
2023/10/09 10:03:49;;;;;;;18.50;5.03;;;19.50;1.00;;;;;;4946149;28;20452;-71
2023/10/09 10:06:21;;;;;;;14.50;4.77;;;19.50;1.00;;;;;;4949087;28;20463;-67
2023/10/09 10:08:51;;;;;;;13.30;4.37;;;19.60;1.00;;;;;;4947744;28;20950;-67
2023/10/09 10:11:45;;;;;;;19.93;4.93;;;19.50;1.00;;;;;;4946985;28;20417;-67
2023/10/09 10:14:21;;;;;;;17.00;4.60;;;19.30;1.00;;;;;;5016927;28;20545;-67
2023/10/09 10:17:16;;;;;;;17.90;5.07;;;19.30;1.00;;;;;;5014543;28;20495;-68
2023/10/09 10:22:47;;;;;;;7.47;4.00;;;19.40;1.00;;;;;;5011446;28;20418;-72
2023/10/09 10:25:35;;;;;;;19.60;4.87;;;19.40;1.00;;;;;;5025842;28;20423;-67
2023/10/09 10:28:44;;;;;;;16.43;4.80;;;19.60;1.00;;;;;;5013281;28;20489;-68
2023/10/09 10:31:11;;;;;;;20.93;4.40;;;19.60;1.00;;;;;;5017799;28;20503;-71
2023/10/09 10:34:23;;;;;;;13.53;4.70;;;19.70;1.00;;;;;;5014048;28;20963;-77
2023/10/09 10:37:00;;;;;;;14.83;4.13;;;19.90;1.00;;;;;;5016331;28;20782;-79
2023/10/09 10:39:45;;;;;;;9.50;3.93;;;19.90;1.00;;;;;;5013816;28;20575;-79
2023/10/09 10:42:57;;;;;;;21.50;4.30;;;20.00;1.00;;;;;;5014323;28;20440;-78
2023/10/09 10:45:35;;;;;;;9.73;4.13;;;20.30;1.00;;;;;;5024870;28;20902;-77
2023/10/09 10:48:07;;;;;;;14.20;4.37;;;20.50;1.00;;;;;;5003614;28;20456;-82
2023/10/09 10:50:38;;;;;;;15.10;4.63;;;20.70;1.00;;;;;;5025137;28;20805;-83
2023/10/09 10:56:35;;;;;;;12.10;4.00;;;20.70;1.00;;;;;;5027805;28;20428;-83
2023/10/09 10:59:24;;;;;;;20.27;4.60;;;20.70;1.00;;;;;;5012226;28;20437;-83
2023/10/09 11:01:59;;;;;;;16.37;3.83;;;20.50;1.00;;;;;;5008424;28;20441;-83
2023/10/09 11:09:58;;;;;;;14.33;4.60;;;21.40;1.00;;;;;;5014678;28;20433;-74
2023/10/09 11:15:44;;;;;;;13.10;4.00;;;21.80;1.00;;;;;;4991363;28;20455;-74
2023/10/09 11:18:20;;;;;;;9.63;4.30;;;21.80;1.00;;;;;;4991392;28;20978;-74
2023/10/09 11:26:26;;;;;;;19.37;4.20;;;22.30;1.00;;;;;;4979968;28;20522;-74
2023/10/09 11:29:23;;;;;;;16.07;4.37;;;22.30;1.00;;;;;;4986163;28;20420;-74
2023/10/09 11:32:23;;;;;;;12.33;5.00;;;22.20;1.00;;;;;;4993825;28;20532;-74
2023/10/09 11:34:54;;;;;;;12.23;4.63;;;22.30;1.00;;;;;;4989561;28;20962;-74
2023/10/09 11:41:06;;;;;;;12.37;4.20;;;22.50;1.00;;;;;;4995204;28;20421;-74
2023/10/09 11:43:58;;;;;;;11.80;3.70;;;22.70;1.00;;;;;;4986799;28;20432;-75
2023/10/09 11:46:50;;;;;;;17.37;4.00;;;22.10;1.00;;;;;;4975348;28;20433;-75
2023/10/09 11:49:32;;;;;;;7.77;3.90;;;22.20;1.00;;;;;;4997448;28;20453;-85
2023/10/09 11:52:56;;;;;;;16.13;4.50;;;22.40;1.00;;;;;;4989313;28;20432;-85
2023/10/09 11:55:28;;;;;;;14.17;4.50;;;22.50;1.00;;;;;;4993926;28;20453;-86
2023/10/09 11:57:56;;;;;;;7.63;3.63;;;22.70;1.00;;;;;;4995197;28;20927;-85
2023/10/09 12:00:29;;;;;;;8.23;3.97;;;22.80;1.00;;;;;;4989753;28;20427;-85
2023/10/09 12:03:23;;;;;;;9.73;4.20;;;22.60;1.00;;;;;;5012864;28;20424;-86
2023/10/09 12:05:49;;;;;;;9.03;4.10;;;22.50;1.00;;;;;;5032151;28;20514;-75
2023/10/09 12:08:22;;;;;;;18.60;4.13;;;22.70;1.00;;;;;;5016378;28;20500;-75
2023/10/09 12:10:48;;;;;;;11.07;3.60;;;22.90;1.00;;;;;;5012577;28;20636;-76
2023/10/09 12:13:22;;;;;;;11.40;3.97;;;23.20;1.00;;;;;;5016256;28;20403;-76
2023/10/09 12:15:55;;;;;;;12.93;4.03;;;23.00;1.00;;;;;;5011379;28;20172;-75
2023/10/09 12:18:28;;;;;;;9.30;3.67;;;22.80;1.00;;;;;;5011378;28;20913;-76
2023/10/09 12:21:02;;;;;;;11.87;3.53;;;22.90;1.00;;;;;;5019391;28;20436;-86
2023/10/09 12:23:50;;;;;;;12.73;4.37;;;23.00;1.00;;;;;;5013779;28;20474;-87
2023/10/09 12:26:52;;;;;;;18.73;4.47;;;23.10;1.00;;;;;;5015643;28;20423;-85
2023/10/09 12:33:19;;;;;;;9.80;4.10;;;23.20;1.00;;;;;;5024360;28;20438;-86
2023/10/09 12:35:47;;;;;;;14.40;3.97;;;23.20;1.00;;;;;;5028981;28;20464;-76
2023/10/09 12:38:32;;;;;;;16.73;4.30;;;23.10;1.00;;;;;;5020396;28;20425;-76
2023/10/09 12:41:18;;;;;;;8.50;3.97;;;22.90;1.00;;;;;;5015975;28;20442;-76
2023/10/09 12:43:43;;;;;;;11.40;3.93;;;22.90;1.00;;;;;;5023572;28;20796;-76
2023/10/09 12:46:17;;;;;;;11.00;3.90;;;22.90;1.00;;;;;;5019790;28;20393;-76
2023/10/09 12:48:48;;;;;;;15.00;4.57;;;22.90;1.00;;;;;;5033422;28;20182;-76
2023/10/09 12:51:16;;;;;;;10.73;3.70;;;22.80;1.00;;;;;;5030467;28;20474;-87
2023/10/09 12:53:43;;;;;;;9.20;3.70;;;23.10;1.00;;;;;;5014803;28;20461;-86
2023/10/09 12:56:11;;;;;;;23.97;4.10;;;23.00;1.00;;;;;;5007084;28;20472;-86
2023/10/09 12:59:20;;;;;;;8.67;4.13;;;23.00;1.00;;;;;;5015100;28;20434;-86
2023/10/09 13:05:25;;;;;;;11.53;3.60;;;23.10;1.00;;;;;;5015143;28;20923;-77
2023/10/09 13:07:53;;;;;;;8.23;3.90;;;23.20;1.00;;;;;;5015490;28;20462;-76
2023/10/09 13:10:23;;;;;;;10.57;4.47;;;23.30;1.00;;;;;;5025692;28;20791;-81
2023/10/09 13:13:20;;;;;;;11.20;4.47;;;23.20;1.00;;;;;;5017550;28;20830;-82
2023/10/09 13:15:53;;;;;;;19.07;4.03;;;23.10;1.00;;;;;;5011708;28;20469;-77
2023/10/09 13:18:26;;;;;;;7.10;3.83;;;23.30;1.00;;;;;;5000172;28;20457;-77
2023/10/09 13:21:15;;;;;;;11.83;4.50;;;23.50;1.00;;;;;;5004678;28;20427;-85
2023/10/09 13:23:46;;;;;;;13.07;4.50;;;23.20;1.00;;;;;;5011334;28;20437;-85
2023/10/09 13:26:51;;;;;;;12.03;3.10;;;23.30;1.00;;;;;;5010918;28;20824;-85
2023/10/09 13:29:22;;;;;;;11.27;4.27;;;23.20;1.00;;;;;;5013723;28;20827;-82
2023/10/09 13:31:58;;;;;;;8.20;3.53;;;23.20;1.00;;;;;;5024092;28;20444;-86
2023/10/09 13:34:56;;;;;;;7.13;3.27;;;23.20;1.00;;;;;;5019845;28;20860;-85
2023/10/09 13:37:55;;;;;;;9.87;4.23;;;23.10;1.00;;;;;;5014504;28;20401;-77
2023/10/09 13:40:56;;;;;;;9.33;3.83;;;23.30;1.00;;;;;;5015077;28;20411;-76
2023/10/09 13:43:51;;;;;;;12.53;3.80;;;23.40;1.00;;;;;;5011096;28;20512;-76
2023/10/09 13:46:26;;;;;;;13.83;3.50;;;23.50;1.00;;;;;;4996374;28;20426;-76
2023/10/09 13:48:56;;;;;;;97.00;87.87;;;23.50;1.00;;;;;;5015671;28;20417;-76
2023/10/09 13:51:56;;;;;;;387.40;308.20;;;23.40;1.00;;;;;;5022908;28;20746;-76
2023/10/09 13:57:07;;;;;;;139.63;125.43;;;23.40;1.00;;;;;;5012960;28;20418;-76
2023/10/09 13:59:35;;;;;;;36.73;33.13;;;23.30;1.00;;;;;;5013983;28;20420;-76
2023/10/09 14:02:02;;;;;;;25.97;13.43;;;23.20;1.00;;;;;;5012437;28;20441;-76
2023/10/09 14:04:28;;;;;;;12.83;3.70;;;23.10;1.00;;;;;;5013168;28;20501;-76
2023/10/09 14:06:59;;;;;;;13.53;4.07;;;23.10;1.00;;;;;;5010551;28;20422;-76
2023/10/09 14:09:38;;;;;;;7.10;3.50;;;23.00;1.00;;;;;;5013424;28;20971;-76
2023/10/09 14:12:10;;;;;;;9.83;4.40;;;23.00;1.00;;;;;;5014326;28;20459;-76
2023/10/09 14:14:48;;;;;;;10.30;4.20;;;22.90;1.00;;;;;;5008283;28;20454;-76
2023/10/09 14:17:28;;;;;;;13.33;3.93;;;22.90;1.00;;;;;;5017257;28;20417;-76
2023/10/09 14:20:25;;;;;;;9.90;3.90;;;23.00;1.00;;;;;;5005571;28;20422;-76
2023/10/09 14:23:20;;;;;;;8.43;3.87;;;23.00;1.00;;;;;;5007556;28;20432;-83
2023/10/09 14:26:22;;;;;;;17.27;4.77;;;23.00;1.00;;;;;;5026024;28;20440;-83
2023/10/09 14:29:20;;;;;;;8.50;4.13;;;22.90;1.00;;;;;;5004702;28;20501;-84
2023/10/09 14:32:02;;;;;;;14.23;4.67;;;22.90;1.00;;;;;;5036436;28;20424;-84
2023/10/09 14:35:21;;;;;;;15.20;4.40;;;22.90;1.00;;;;;;5033441;28;20426;-84
2023/10/09 14:38:02;;;;;;;11.80;3.70;;;22.80;1.00;;;;;;5044332;28;20422;-85
2023/10/09 14:40:59;;;;;;;14.27;4.03;;;22.80;1.00;;;;;;5011756;28;20894;-84
2023/10/09 14:44:02;;;;;;;15.03;4.20;;;22.70;1.00;;;;;;5030031;28;20409;-84
2023/10/09 14:46:32;;;;;;;11.17;4.17;;;22.60;1.00;;;;;;5030175;28;20453;-84
2023/10/09 14:49:21;;;;;;;14.10;3.73;;;22.50;1.00;;;;;;5022987;28;20467;-84
2023/10/09 14:51:47;;;;;;;8.77;3.77;;;22.40;1.00;;;;;;5007581;28;20530;-75
2023/10/09 14:54:17;;;;;;;16.00;4.40;;;22.40;1.00;;;;;;5021135;28;20460;-74
2023/10/09 14:56:50;;;;;;;12.93;4.40;;;22.30;1.00;;;;;;5006366;28;20470;-75
2023/10/09 14:59:19;;;;;;;9.23;3.50;;;22.20;1.00;;;;;;5009269;28;20939;-74
2023/10/09 15:01:45;;;;;;;14.63;4.27;;;22.20;1.00;;;;;;5006660;28;20459;-74
2023/10/09 15:04:14;;;;;;;11.17;4.00;;;22.10;1.00;;;;;;5023469;28;20465;-74
2023/10/09 15:07:08;;;;;;;11.53;4.30;;;22.10;1.00;;;;;;5006065;28;20177;-83
2023/10/09 15:09:44;;;;;;;12.23;3.93;;;22.10;1.00;;;;;;5013323;28;20417;-83
2023/10/09 15:12:26;;;;;;;11.20;4.03;;;22.00;1.00;;;;;;5013275;28;20412;-83
2023/10/09 15:15:25;;;;;;;9.40;3.83;;;22.00;1.00;;;;;;5022774;28;20963;-83
2023/10/09 15:18:14;;;;;;;9.53;4.37;;;21.90;1.00;;;;;;4993273;28;20464;-83
2023/10/09 15:20:51;;;;;;;11.37;4.20;;;21.90;1.00;;;;;;5022413;28;20428;-83
2023/10/09 15:23:20;;;;;;;13.13;3.73;;;21.80;1.00;;;;;;5005084;28;20451;-81
2023/10/09 15:25:56;;;;;;;8.03;4.47;;;21.80;1.00;;;;;;5010821;28;20986;-82
2023/10/09 15:28:32;;;;;;;8.73;4.00;;;21.80;1.00;;;;;;5013045;28;20513;-81
2023/10/09 15:34:35;;;;;;;14.87;3.83;;;21.70;1.00;;;;;;5011631;28;21012;-81
2023/10/09 15:37:20;;;;;;;15.77;5.07;;;21.70;1.00;;;;;;5028741;28;20422;-76
2023/10/09 15:40:13;;;;;;;18.50;4.33;;;21.70;1.00;;;;;;5012575;28;20510;-77
2023/10/09 15:42:55;;;;;;;6.43;4.03;;;21.70;1.00;;;;;;5006180;28;20415;-76
2023/10/09 15:45:22;;;;;;;21.23;4.43;;;21.60;1.00;;;;;;5027975;28;20472;-75
2023/10/09 15:47:51;;;;;;;9.67;4.17;;;21.60;1.00;;;;;;5005611;28;20791;-76
2023/10/09 15:50:26;;;;;;;14.10;5.27;;;21.60;1.00;;;;;;5014749;28;20926;-76
2023/10/09 15:53:21;;;;;;;13.23;4.63;;;21.70;1.00;;;;;;5007887;28;21053;-81
2023/10/09 15:55:53;;;;;;;12.30;4.27;;;21.80;1.00;;;;;;5020560;28;20471;-81
2023/10/09 15:58:19;;;;;;;17.73;4.43;;;21.70;1.00;;;;;;5010635;28;20390;-81
2023/10/09 16:00:50;;;;;;;11.43;4.37;;;21.60;1.00;;;;;;4999193;28;20780;-82
2023/10/09 16:03:27;;;;;;;27.30;4.60;;;21.60;1.00;;;;;;5023382;28;20559;-82
2023/10/09 16:06:30;;;;;;;12.70;4.40;;;21.50;1.00;;;;;;5011707;28;20936;-79
2023/10/09 16:09:21;;;;;;;15.80;4.33;;;21.40;1.00;;;;;;5019038;28;20419;-82
2023/10/09 16:11:56;;;;;;;13.70;3.93;;;21.20;1.00;;;;;;5016233;28;20441;-80
2023/10/09 16:14:26;;;;;;;12.27;4.03;;;21.10;1.00;;;;;;5010542;28;20984;-80
2023/10/09 16:16:55;;;;;;;9.07;3.90;;;20.90;1.00;;;;;;5018271;28;20426;-81
2023/10/09 16:19:28;;;;;;;9.57;4.00;;;20.70;1.00;;;;;;5016642;28;20469;-81
2023/10/09 16:22:12;;;;;;;8.07;4.27;;;20.70;1.00;;;;;;5014440;28;20441;-80
2023/10/09 16:24:52;;;;;;;17.27;4.70;;;20.60;1.00;;;;;;5007615;28;20449;-81
2023/10/09 16:27:23;;;;;;;9.43;4.30;;;20.40;1.00;;;;;;5017353;28;20441;-82
2023/10/09 16:29:50;;;;;;;8.63;4.53;;;20.30;1.00;;;;;;5025051;28;20395;-81
2023/10/09 16:32:23;;;;;;;14.50;4.13;;;20.30;1.00;;;;;;5023793;28;20439;-83
2023/10/09 16:34:56;;;;;;;11.13;4.00;;;20.10;1.00;;;;;;5015950;28;20432;-81
2023/10/09 16:37:26;;;;;;;14.83;4.30;;;20.00;1.00;;;;;;5028377;28;20451;-78
2023/10/09 16:40:01;;;;;;;13.87;4.63;;;20.00;1.00;;;;;;5016501;28;20429;-78
2023/10/09 16:42:27;;;;;;;14.80;4.90;;;19.90;1.00;;;;;;5016449;28;20399;-79
2023/10/09 16:44:57;;;;;;;10.17;4.80;;;19.80;1.00;;;;;;5013167;28;20519;-80
2023/10/09 16:47:28;;;;;;;10.13;4.93;;;19.70;1.00;;;;;;5013231;28;20202;-79
2023/10/09 16:50:25;;;;;;;10.93;4.77;;;19.60;1.00;;;;;;5025602;28;20453;-79
2023/10/09 16:52:56;;;;;;;12.93;4.53;;;19.50;1.00;;;;;;5019590;28;20436;-82
2023/10/09 16:55:26;;;;;;;11.37;5.03;;;19.40;1.00;;;;;;5029048;28;20489;-82
2023/10/09 16:58:20;;;;;;;8.43;3.93;;;19.30;1.00;;;;;;5023711;28;20943;-82
2023/10/09 17:00:55;;;;;;;66.20;35.20;;;19.30;1.00;;;;;;5024555;28;20448;-79
2023/10/09 17:03:54;;;;;;;9.10;4.73;;;19.20;1.00;;;;;;5026089;28;20402;-81
2023/10/09 17:06:21;;;;;;;7.33;4.07;;;19.10;1.00;;;;;;5035196;28;20427;-81